createdAt,value
2017-09-07T00:00:09.323Z,1006.79
2017-09-07T00:00:49.896Z,1006.76
2017-09-07T00:01:30.439Z,1006.75
2017-09-07T00:02:11.015Z,1006.75
2017-09-07T00:02:51.533Z,1006.76
2017-09-07T00:03:32.058Z,1006.73
2017-09-07T00:04:12.621Z,1006.75
2017-09-07T00:04:53.178Z,1006.74
2017-09-07T00:05:33.746Z,1006.73
2017-09-07T00:06:14.305Z,1006.73
2017-09-07T00:06:54.851Z,1006.72
2017-09-07T00:07:35.405Z,1006.72
2017-09-07T00:08:15.982Z,1006.74
2017-09-07T00:08:56.545Z,1006.69
2017-09-07T00:09:37.123Z,1006.74
2017-09-07T00:10:17.668Z,1006.7
2017-09-07T00:10:58.243Z,1006.74
2017-09-07T00:11:38.811Z,1006.72
2017-09-07T00:12:19.358Z,1006.75
2017-09-07T00:12:59.922Z,1006.73
2017-09-07T00:13:40.465Z,1006.7
2017-09-07T00:14:21.034Z,1006.72
2017-09-07T00:15:01.579Z,1006.75
2017-09-07T00:15:42.135Z,1006.68
2017-09-07T00:16:22.747Z,1006.69
2017-09-07T00:17:03.321Z,1006.72
2017-09-07T00:17:43.876Z,1006.7
2017-09-07T00:18:24.396Z,1006.69
2017-09-07T00:19:04.955Z,1006.65
2017-09-07T00:19:45.510Z,1006.67
2017-09-07T00:20:26.063Z,1006.63
2017-09-07T00:21:06.615Z,1006.68
2017-09-07T00:21:47.191Z,1006.66
2017-09-07T00:22:27.765Z,1006.65
2017-09-07T00:23:08.352Z,1006.65
2017-09-07T00:23:48.912Z,1006.63
2017-09-07T00:24:29.459Z,1006.61
2017-09-07T00:25:10.024Z,1006.63
2017-09-07T00:25:50.594Z,1006.58
2017-09-07T00:26:31.160Z,1006.62
2017-09-07T00:27:11.710Z,1006.56
2017-09-07T00:27:52.280Z,1006.57
2017-09-07T00:28:32.803Z,1006.58
2017-09-07T00:29:13.347Z,1006.59
2017-09-07T00:29:53.878Z,1006.52
2017-09-07T00:30:34.436Z,1006.52
2017-09-07T00:31:15.007Z,1006.52
2017-09-07T00:31:55.587Z,1006.54
2017-09-07T00:32:36.164Z,1006.55
2017-09-07T00:33:16.746Z,1006.48
2017-09-07T00:33:57.285Z,1006.47
2017-09-07T00:34:37.842Z,1006.49
2017-09-07T00:35:18.407Z,1006.51
2017-09-07T00:35:58.979Z,1006.47
2017-09-07T00:36:39.535Z,1006.48
2017-09-07T00:37:20.115Z,1006.49
2017-09-07T00:38:00.675Z,1006.48
2017-09-07T00:38:41.239Z,1006.46
2017-09-07T00:39:21.785Z,1006.46
2017-09-07T00:40:02.353Z,1006.46
2017-09-07T00:40:42.924Z,1006.48
2017-09-07T00:41:23.470Z,1006.45
2017-09-07T00:42:04.024Z,1006.45
2017-09-07T00:42:44.564Z,1006.51
2017-09-07T00:43:25.105Z,1006.44
2017-09-07T00:44:05.652Z,1006.47
2017-09-07T00:44:46.217Z,1006.48
2017-09-07T00:45:26.751Z,1006.42
2017-09-07T00:46:07.283Z,1006.46
2017-09-07T00:46:47.879Z,1006.43
2017-09-07T00:47:28.391Z,1006.46
2017-09-07T00:48:08.944Z,1006.45
2017-09-07T00:48:49.496Z,1006.44
2017-09-07T00:49:30.059Z,1006.46
2017-09-07T00:50:10.608Z,1006.42
2017-09-07T00:50:51.150Z,1006.42
2017-09-07T00:51:31.693Z,1006.42
2017-09-07T00:52:12.250Z,1006.43
2017-09-07T00:52:52.800Z,1006.39
2017-09-07T00:53:33.361Z,1006.41
2017-09-07T00:54:13.918Z,1006.45
2017-09-07T00:54:54.489Z,1006.43
2017-09-07T00:55:35.035Z,1006.47
2017-09-07T00:56:15.615Z,1006.42
2017-09-07T00:56:56.220Z,1006.42
2017-09-07T00:57:36.814Z,1006.41
2017-09-07T00:58:17.350Z,1006.41
2017-09-07T00:58:57.917Z,1006.44
2017-09-07T00:59:38.499Z,1006.41
2017-09-07T01:00:19.055Z,1006.47
2017-09-07T01:00:59.614Z,1006.38
2017-09-07T01:01:40.155Z,1006.37
2017-09-07T01:02:20.721Z,1006.4
2017-09-07T01:03:01.272Z,1006.34
2017-09-07T01:03:41.821Z,1006.37
2017-09-07T01:04:22.373Z,1006.39
2017-09-07T01:05:02.954Z,1006.38
2017-09-07T01:05:43.510Z,1006.4
2017-09-07T01:06:24.058Z,1006.39
2017-09-07T01:07:04.639Z,1006.37
2017-09-07T01:07:45.235Z,1006.39
2017-09-07T01:08:25.776Z,1006.32
2017-09-07T01:09:06.329Z,1006.34
2017-09-07T01:09:46.913Z,1006.32
2017-09-07T01:10:27.475Z,1006.32
2017-09-07T01:11:08.007Z,1006.31
2017-09-07T01:11:48.574Z,1006.29
2017-09-07T01:12:29.111Z,1006.32
2017-09-07T01:13:09.655Z,1006.3
2017-09-07T01:13:50.207Z,1006.26
2017-09-07T01:14:30.745Z,1006.33
2017-09-07T01:15:11.284Z,1006.31
2017-09-07T01:15:51.840Z,1006.35
2017-09-07T01:16:32.402Z,1006.29
2017-09-07T01:17:12.960Z,1006.32
2017-09-07T01:17:53.495Z,1006.31
2017-09-07T01:18:34.057Z,1006.31
2017-09-07T01:19:14.588Z,1006.32
2017-09-07T01:19:55.135Z,1006.31
2017-09-07T01:20:35.691Z,1006.3
2017-09-07T01:21:16.282Z,1006.34
2017-09-07T01:21:56.801Z,1006.34
2017-09-07T01:22:37.381Z,1006.31
2017-09-07T01:23:17.975Z,1006.28
2017-09-07T01:23:58.509Z,1006.27
2017-09-07T01:24:39.068Z,1006.26
2017-09-07T01:25:19.588Z,1006.31
2017-09-07T01:26:00.118Z,1006.27
2017-09-07T01:26:40.640Z,1006.25
2017-09-07T01:27:21.205Z,1006.29
2017-09-07T01:28:01.745Z,1006.33
2017-09-07T01:28:42.296Z,1006.26
2017-09-07T01:29:22.867Z,1006.27
2017-09-07T01:30:03.433Z,1006.25
2017-09-07T01:30:43.975Z,1006.24
2017-09-07T01:31:24.541Z,1006.23
2017-09-07T01:32:05.081Z,1006.25
2017-09-07T01:32:45.644Z,1006.22
2017-09-07T01:33:26.208Z,1006.21
2017-09-07T01:34:06.758Z,1006.2
2017-09-07T01:34:47.322Z,1006.19
2017-09-07T01:35:27.859Z,1006.22
2017-09-07T01:36:08.421Z,1006.19
2017-09-07T01:36:48.989Z,1006.23
2017-09-07T01:37:29.558Z,1006.21
2017-09-07T01:38:10.110Z,1006.21
2017-09-07T01:38:50.660Z,1006.17
2017-09-07T01:39:31.229Z,1006.21
2017-09-07T01:40:11.795Z,1006.18
2017-09-07T01:40:52.342Z,1006.16
2017-09-07T01:41:32.906Z,1006.17
2017-09-07T01:42:13.480Z,1006.19
2017-09-07T01:42:54.028Z,1006.16
2017-09-07T01:43:34.578Z,1006.13
2017-09-07T01:44:15.109Z,1006.15
2017-09-07T01:44:55.684Z,1006.19
2017-09-07T01:45:36.262Z,1006.16
2017-09-07T01:46:16.823Z,1006.17
2017-09-07T01:46:57.382Z,1006.23
2017-09-07T01:47:37.939Z,1006.18
2017-09-07T01:48:18.511Z,1006.19
2017-09-07T01:48:59.095Z,1006.21
2017-09-07T01:49:39.629Z,1006.16
2017-09-07T01:50:20.213Z,1006.21
2017-09-07T01:51:00.782Z,1006.18
2017-09-07T01:51:41.350Z,1006.19
2017-09-07T01:52:21.893Z,1006.19
2017-09-07T01:53:02.455Z,1006.21
2017-09-07T01:53:43.023Z,1006.21
2017-09-07T01:54:23.572Z,1006.15
2017-09-07T01:55:04.126Z,1006.19
2017-09-07T01:55:44.680Z,1006.19
2017-09-07T01:56:25.232Z,1006.18
2017-09-07T01:57:05.793Z,1006.17
2017-09-07T01:57:46.375Z,1006.19
2017-09-07T01:58:26.923Z,1006.11
2017-09-07T01:59:07.461Z,1006.14
2017-09-07T01:59:48.019Z,1006.06
2017-09-07T02:00:28.580Z,1006.09
2017-09-07T02:01:09.131Z,1006.12
2017-09-07T02:01:49.681Z,1006.07
2017-09-07T02:02:30.230Z,1006.07
2017-09-07T02:03:10.791Z,1006.05
2017-09-07T02:03:51.333Z,1006.07
2017-09-07T02:04:31.869Z,1006.11
2017-09-07T02:05:12.427Z,1006.07
2017-09-07T02:05:52.983Z,1006.03
2017-09-07T02:06:33.535Z,1006.06
2017-09-07T02:07:14.096Z,1006.05
2017-09-07T02:07:54.651Z,1006.02
2017-09-07T02:08:35.253Z,1006.08
2017-09-07T02:09:15.783Z,1006.05
2017-09-07T02:09:56.320Z,1006.05
2017-09-07T02:10:36.850Z,1006
2017-09-07T02:11:17.406Z,1005.98
2017-09-07T02:11:57.979Z,1006
2017-09-07T02:12:38.537Z,1005.99
2017-09-07T02:13:19.115Z,1005.99
2017-09-07T02:13:59.658Z,1005.98
2017-09-07T02:14:40.226Z,1006.01
2017-09-07T02:15:20.786Z,1006
2017-09-07T02:16:01.357Z,1006
2017-09-07T02:16:41.921Z,1006
2017-09-07T02:17:22.488Z,1005.96
2017-09-07T02:18:03.042Z,1005.99
2017-09-07T02:18:43.627Z,1005.96
2017-09-07T02:19:24.165Z,1005.97
2017-09-07T02:20:04.716Z,1006.02
2017-09-07T02:20:45.269Z,1005.97
2017-09-07T02:21:25.845Z,1006.01
2017-09-07T02:22:06.402Z,1005.96
2017-09-07T02:22:46.955Z,1005.96
2017-09-07T02:23:27.503Z,1005.94
2017-09-07T02:24:08.057Z,1005.98
2017-09-07T02:24:48.624Z,1005.99
2017-09-07T02:25:29.191Z,1005.99
2017-09-07T02:26:09.746Z,1006
2017-09-07T02:26:50.294Z,1006.02
2017-09-07T02:27:30.862Z,1005.99
2017-09-07T02:28:11.403Z,1006.03
2017-09-07T02:28:51.951Z,1005.98
2017-09-07T02:29:32.515Z,1006.04
2017-09-07T02:30:13.056Z,1005.99
2017-09-07T02:30:53.596Z,1006.03
2017-09-07T02:31:34.163Z,1005.99
2017-09-07T02:32:14.728Z,1005.98
2017-09-07T02:32:55.296Z,1006.03
2017-09-07T02:33:35.873Z,1005.99
2017-09-07T02:34:16.412Z,1005.99
2017-09-07T02:34:56.974Z,1005.93
2017-09-07T02:35:37.538Z,1005.96
2017-09-07T02:36:18.111Z,1005.98
2017-09-07T02:36:58.644Z,1005.93
2017-09-07T02:37:39.205Z,1005.98
2017-09-07T02:38:19.744Z,1005.96
2017-09-07T02:39:00.305Z,1006
2017-09-07T02:39:40.873Z,1005.99
2017-09-07T02:40:21.418Z,1005.99
2017-09-07T02:41:01.968Z,1006.04
2017-09-07T02:41:42.531Z,1005.97
2017-09-07T02:42:23.091Z,1005.99
2017-09-07T02:43:03.635Z,1005.98
2017-09-07T02:43:44.196Z,1005.95
2017-09-07T02:44:24.740Z,1005.96
2017-09-07T02:45:05.306Z,1005.92
2017-09-07T02:45:45.861Z,1005.93
2017-09-07T02:46:26.419Z,1005.94
2017-09-07T02:47:06.957Z,1005.89
2017-09-07T02:47:47.525Z,1005.93
2017-09-07T02:48:28.091Z,1005.91
2017-09-07T02:49:08.620Z,1005.92
2017-09-07T02:49:49.197Z,1005.91
2017-09-07T02:50:29.755Z,1005.9
2017-09-07T02:51:10.312Z,1005.89
2017-09-07T02:51:50.891Z,1005.92
2017-09-07T02:52:31.453Z,1005.92
2017-09-07T02:53:12.005Z,1005.89
2017-09-07T02:53:52.551Z,1005.91
2017-09-07T02:54:33.104Z,1005.83
2017-09-07T02:55:13.651Z,1005.87
2017-09-07T02:55:54.223Z,1005.82
2017-09-07T02:56:34.771Z,1005.83
2017-09-07T02:57:15.331Z,1005.82
2017-09-07T02:57:55.906Z,1005.82
2017-09-07T02:58:36.473Z,1005.86
2017-09-07T02:59:17.017Z,1005.83
2017-09-07T02:59:57.548Z,1005.83
2017-09-07T03:00:38.085Z,1005.84
2017-09-07T03:01:18.661Z,1005.83
2017-09-07T03:01:59.219Z,1005.83
2017-09-07T03:02:39.799Z,1005.82
2017-09-07T03:03:20.366Z,1005.82
2017-09-07T03:04:00.910Z,1005.79
2017-09-07T03:04:41.469Z,1005.82
2017-09-07T03:05:22.024Z,1005.84
2017-09-07T03:06:02.570Z,1005.8
2017-09-07T03:06:43.142Z,1005.78
2017-09-07T03:07:23.694Z,1005.8
2017-09-07T03:08:04.261Z,1005.8
2017-09-07T03:08:44.804Z,1005.8
2017-09-07T03:09:25.380Z,1005.77
2017-09-07T03:10:05.930Z,1005.75
2017-09-07T03:10:46.471Z,1005.81
2017-09-07T03:11:27.040Z,1005.78
2017-09-07T03:12:07.586Z,1005.77
2017-09-07T03:12:48.133Z,1005.76
2017-09-07T03:13:28.686Z,1005.73
2017-09-07T03:14:09.257Z,1005.73
2017-09-07T03:14:49.815Z,1005.72
2017-09-07T03:15:30.361Z,1005.69
2017-09-07T03:16:10.933Z,1005.71
2017-09-07T03:16:51.462Z,1005.71
2017-09-07T03:17:31.979Z,1005.65
2017-09-07T03:18:12.517Z,1005.64
2017-09-07T03:18:53.090Z,1005.66
2017-09-07T03:19:33.645Z,1005.63
2017-09-07T03:20:14.191Z,1005.64
2017-09-07T03:20:54.750Z,1005.67
2017-09-07T03:21:35.318Z,1005.62
2017-09-07T03:22:15.881Z,1005.62
2017-09-07T03:22:56.474Z,1005.66
2017-09-07T03:23:37.004Z,1005.62
2017-09-07T03:24:17.586Z,1005.62
2017-09-07T03:24:58.155Z,1005.6
2017-09-07T03:25:38.698Z,1005.61
2017-09-07T03:26:19.248Z,1005.59
2017-09-07T03:27:00.581Z,1005.6
2017-09-07T03:27:41.138Z,1005.62
2017-09-07T03:28:21.675Z,1005.58
2017-09-07T03:29:02.238Z,1005.56
2017-09-07T03:29:42.799Z,1005.61
2017-09-07T03:30:23.322Z,1005.58
2017-09-07T03:31:03.869Z,1005.56
2017-09-07T03:31:44.432Z,1005.58
2017-09-07T03:32:24.984Z,1005.55
2017-09-07T03:33:05.541Z,1005.58
2017-09-07T03:33:46.120Z,1005.6
2017-09-07T03:34:26.649Z,1005.56
2017-09-07T03:35:07.189Z,1005.55
2017-09-07T03:35:47.766Z,1005.55
2017-09-07T03:36:28.313Z,1005.56
2017-09-07T03:37:08.870Z,1005.57
2017-09-07T03:37:49.443Z,1005.53
2017-09-07T03:38:29.980Z,1005.52
2017-09-07T03:39:10.547Z,1005.54
2017-09-07T03:39:51.138Z,1005.54
2017-09-07T03:40:31.710Z,1005.59
2017-09-07T03:41:12.266Z,1005.54
2017-09-07T03:41:52.832Z,1005.53
2017-09-07T03:42:33.408Z,1005.56
2017-09-07T03:43:13.982Z,1005.55
2017-09-07T03:43:54.537Z,1005.61
2017-09-07T03:44:35.099Z,1005.54
2017-09-07T03:45:15.679Z,1005.57
2017-09-07T03:45:56.229Z,1005.6
2017-09-07T03:46:36.790Z,1005.57
2017-09-07T03:47:17.368Z,1005.62
2017-09-07T03:47:57.935Z,1005.59
2017-09-07T03:48:38.487Z,1005.6
2017-09-07T03:49:19.064Z,1005.58
2017-09-07T03:49:59.637Z,1005.59
2017-09-07T03:50:40.194Z,1005.6
2017-09-07T03:51:20.761Z,1005.54
2017-09-07T03:52:01.325Z,1005.58
2017-09-07T03:52:41.894Z,1005.59
2017-09-07T03:53:22.468Z,1005.6
2017-09-07T03:54:03.035Z,1005.59
2017-09-07T03:54:43.595Z,1005.64
2017-09-07T03:55:24.159Z,1005.6
2017-09-07T03:56:04.741Z,1005.59
2017-09-07T03:56:45.312Z,1005.55
2017-09-07T03:57:25.878Z,1005.59
2017-09-07T03:58:06.451Z,1005.57
2017-09-07T03:58:47.010Z,1005.62
2017-09-07T03:59:27.571Z,1005.59
2017-09-07T04:00:08.159Z,1005.5
2017-09-07T04:00:48.718Z,1005.54
2017-09-07T04:01:29.285Z,1005.56
2017-09-07T04:02:09.854Z,1005.55
2017-09-07T04:02:50.414Z,1005.52
2017-09-07T04:03:30.979Z,1005.55
2017-09-07T04:04:11.557Z,1005.57
2017-09-07T04:04:52.137Z,1005.53
2017-09-07T04:05:32.706Z,1005.49
2017-09-07T04:06:13.256Z,1005.47
2017-09-07T04:06:53.824Z,1005.52
2017-09-07T04:07:34.385Z,1005.49
2017-09-07T04:08:14.954Z,1005.49
2017-09-07T04:08:55.534Z,1005.5
2017-09-07T04:09:36.118Z,1005.46
2017-09-07T04:10:16.684Z,1005.49
2017-09-07T04:10:57.254Z,1005.47
2017-09-07T04:11:37.817Z,1005.5
2017-09-07T04:12:18.395Z,1005.49
2017-09-07T04:12:58.960Z,1005.56
2017-09-07T04:13:39.544Z,1005.51
2017-09-07T04:14:20.099Z,1005.5
2017-09-07T04:15:00.681Z,1005.49
2017-09-07T04:15:41.239Z,1005.52
2017-09-07T04:16:21.787Z,1005.47
2017-09-07T04:17:02.336Z,1005.5
2017-09-07T04:17:42.903Z,1005.45
2017-09-07T04:18:23.488Z,1005.43
2017-09-07T04:19:04.047Z,1005.43
2017-09-07T04:19:44.623Z,1005.46
2017-09-07T04:20:25.201Z,1005.45
2017-09-07T04:21:05.762Z,1005.44
2017-09-07T04:21:46.416Z,1005.43
2017-09-07T04:22:26.859Z,1005.39
2017-09-07T04:23:07.465Z,1005.43
2017-09-07T04:23:47.986Z,1005.37
2017-09-07T04:24:28.559Z,1005.35
2017-09-07T04:25:09.068Z,1005.36
2017-09-07T04:25:49.623Z,1005.39
2017-09-07T04:26:30.180Z,1005.42
2017-09-07T04:27:10.749Z,1005.36
2017-09-07T04:27:51.305Z,1005.38
2017-09-07T04:28:31.883Z,1005.31
2017-09-07T04:29:12.414Z,1005.35
2017-09-07T04:29:52.983Z,1005.38
2017-09-07T04:30:33.552Z,1005.41
2017-09-07T04:31:14.123Z,1005.4
2017-09-07T04:31:54.703Z,1005.37
2017-09-07T04:32:35.236Z,1005.36
2017-09-07T04:33:15.799Z,1005.37
2017-09-07T04:33:56.356Z,1005.41
2017-09-07T04:34:36.863Z,1005.36
2017-09-07T04:35:17.377Z,1005.38
2017-09-07T04:35:57.930Z,1005.37
2017-09-07T04:36:38.512Z,1005.35
2017-09-07T04:37:19.088Z,1005.38
2017-09-07T04:37:59.657Z,1005.38
2017-09-07T04:38:40.238Z,1005.36
2017-09-07T04:39:20.765Z,1005.33
2017-09-07T04:40:01.277Z,1005.38
2017-09-07T04:40:41.840Z,1005.38
2017-09-07T04:41:22.426Z,1005.37
2017-09-07T04:42:02.975Z,1005.42
2017-09-07T04:42:43.563Z,1005.42
2017-09-07T04:43:24.119Z,1005.4
2017-09-07T04:44:04.695Z,1005.39
2017-09-07T04:44:45.247Z,1005.37
2017-09-07T04:45:25.837Z,1005.38
2017-09-07T04:46:06.423Z,1005.36
2017-09-07T04:46:46.936Z,1005.34
2017-09-07T04:47:27.500Z,1005.33
2017-09-07T04:48:08.045Z,1005.35
2017-09-07T04:48:48.574Z,1005.31
2017-09-07T04:49:29.083Z,1005.31
2017-09-07T04:50:09.626Z,1005.39
2017-09-07T04:50:50.189Z,1005.35
2017-09-07T04:51:30.737Z,1005.31
2017-09-07T04:52:11.296Z,1005.33
2017-09-07T04:52:51.853Z,1005.31
2017-09-07T04:53:32.430Z,1005.3
2017-09-07T04:54:13.089Z,1005.34
2017-09-07T04:54:53.651Z,1005.35
2017-09-07T04:55:34.210Z,1005.34
2017-09-07T04:56:14.766Z,1005.37
2017-09-07T04:56:55.308Z,1005.43
2017-09-07T04:57:35.866Z,1005.42
2017-09-07T04:58:16.408Z,1005.36
2017-09-07T04:58:56.964Z,1005.4
2017-09-07T04:59:37.545Z,1005.37
2017-09-07T05:00:18.101Z,1005.38
2017-09-07T05:00:58.656Z,1005.39
2017-09-07T05:01:39.239Z,1005.34
2017-09-07T05:02:19.815Z,1005.33
2017-09-07T05:03:00.355Z,1005.31
2017-09-07T05:03:40.921Z,1005.37
2017-09-07T05:04:21.477Z,1005.44
2017-09-07T05:05:02.018Z,1005.4
2017-09-07T05:05:42.540Z,1005.37
2017-09-07T05:06:23.103Z,1005.36
2017-09-07T05:07:03.665Z,1005.34
2017-09-07T05:07:44.234Z,1005.3
2017-09-07T05:08:24.797Z,1005.32
2017-09-07T05:09:05.369Z,1005.32
2017-09-07T05:09:45.906Z,1005.34
2017-09-07T05:10:26.458Z,1005.39
2017-09-07T05:11:07.005Z,1005.33
2017-09-07T05:11:47.577Z,1005.36
2017-09-07T05:12:28.192Z,1005.4
2017-09-07T05:13:08.863Z,1005.29
2017-09-07T05:13:49.409Z,1005.33
2017-09-07T05:14:29.958Z,1005.36
2017-09-07T05:15:10.448Z,1005.36
2017-09-07T05:15:51.029Z,1005.31
2017-09-07T05:16:31.599Z,1005.38
2017-09-07T05:17:12.165Z,1005.37
2017-09-07T05:17:52.723Z,1005.43
2017-09-07T05:18:33.296Z,1005.38
2017-09-07T05:19:13.863Z,1005.41
2017-09-07T05:19:54.424Z,1005.39
2017-09-07T05:20:34.983Z,1005.43
2017-09-07T05:21:15.566Z,1005.37
2017-09-07T05:21:56.074Z,1005.39
2017-09-07T05:22:36.691Z,1005.37
2017-09-07T05:23:17.261Z,1005.4
2017-09-07T05:23:57.837Z,1005.4
2017-09-07T05:24:38.547Z,1005.41
2017-09-07T05:25:19.160Z,1005.39
2017-09-07T05:25:59.847Z,1005.37
2017-09-07T05:26:40.394Z,1005.35
2017-09-07T05:27:20.955Z,1005.37
2017-09-07T05:28:01.515Z,1005.36
2017-09-07T05:28:42.084Z,1005.38
2017-09-07T05:29:22.656Z,1005.37
2017-09-07T05:30:03.237Z,1005.37
2017-09-07T05:30:43.795Z,1005.32
2017-09-07T05:31:24.363Z,1005.41
2017-09-07T05:32:04.923Z,1005.39
2017-09-07T05:32:45.490Z,1005.38
2017-09-07T05:33:26.058Z,1005.39
2017-09-07T05:34:06.616Z,1005.4
2017-09-07T05:34:47.183Z,1005.35
2017-09-07T05:35:27.745Z,1005.37
2017-09-07T05:36:08.315Z,1005.33
2017-09-07T05:36:48.864Z,1005.33
2017-09-07T05:37:29.434Z,1005.36
2017-09-07T05:38:10.000Z,1005.39
2017-09-07T05:38:50.563Z,1005.39
2017-09-07T05:39:31.147Z,1005.39
2017-09-07T05:40:11.710Z,1005.41
2017-09-07T05:40:52.288Z,1005.42
2017-09-07T05:41:32.824Z,1005.4
2017-09-07T05:42:13.390Z,1005.45
2017-09-07T05:42:53.961Z,1005.44
2017-09-07T05:43:34.521Z,1005.42
2017-09-07T05:44:15.029Z,1005.38
2017-09-07T05:44:55.581Z,1005.42
2017-09-07T05:45:36.145Z,1005.45
2017-09-07T05:46:16.709Z,1005.4
2017-09-07T05:46:57.274Z,1005.41
2017-09-07T05:47:37.857Z,1005.44
2017-09-07T05:48:18.370Z,1005.46
2017-09-07T05:48:58.918Z,1005.45
2017-09-07T05:49:39.410Z,1005.42
2017-09-07T05:50:20.000Z,1005.42
2017-09-07T05:51:00.561Z,1005.44
2017-09-07T05:51:41.074Z,1005.43
2017-09-07T05:52:21.647Z,1005.49
2017-09-07T05:53:02.198Z,1005.45
2017-09-07T05:53:42.782Z,1005.43
2017-09-07T05:54:23.373Z,1005.48
2017-09-07T05:55:03.865Z,1005.45
2017-09-07T05:55:44.468Z,1005.4
2017-09-07T05:56:25.024Z,1005.49
2017-09-07T05:57:05.604Z,1005.46
2017-09-07T05:57:46.137Z,1005.49
2017-09-07T05:58:26.652Z,1005.48
2017-09-07T05:59:07.223Z,1005.48
2017-09-07T05:59:47.792Z,1005.49
2017-09-07T06:00:28.289Z,1005.47
2017-09-07T06:01:08.885Z,1005.44
2017-09-07T06:01:49.469Z,1005.45
2017-09-07T06:02:30.007Z,1005.43
2017-09-07T06:03:10.561Z,1005.45
2017-09-07T06:03:51.100Z,1005.47
2017-09-07T06:04:31.648Z,1005.47
2017-09-07T06:05:12.196Z,1005.42
2017-09-07T06:05:52.757Z,1005.38
2017-09-07T06:06:33.291Z,1005.44
2017-09-07T06:07:13.848Z,1005.43
2017-09-07T06:07:54.395Z,1005.44
2017-09-07T06:08:34.973Z,1005.47
2017-09-07T06:09:15.599Z,1005.43
2017-09-07T06:09:56.139Z,1005.44
2017-09-07T06:10:36.680Z,1005.46
2017-09-07T06:11:17.251Z,1005.45
2017-09-07T06:11:57.805Z,1005.48
2017-09-07T06:12:38.338Z,1005.46
2017-09-07T06:13:18.960Z,1005.46
2017-09-07T06:13:59.496Z,1005.46
2017-09-07T06:14:40.105Z,1005.5
2017-09-07T06:15:20.660Z,1005.43
2017-09-07T06:16:01.154Z,1005.46
2017-09-07T06:16:41.735Z,1005.47
2017-09-07T06:17:22.299Z,1005.5
2017-09-07T06:18:02.944Z,1005.46
2017-09-07T06:18:43.419Z,1005.48
2017-09-07T06:19:24.147Z,1005.45
2017-09-07T06:20:04.888Z,1005.45
2017-09-07T06:20:45.907Z,1005.5
2017-09-07T06:21:26.892Z,1005.48
2017-09-07T06:22:07.365Z,1005.49
2017-09-07T06:22:47.900Z,1005.5
2017-09-07T06:23:28.442Z,1005.5
2017-09-07T06:24:09.140Z,1005.52
2017-09-07T06:24:49.660Z,1005.55
2017-09-07T06:25:30.744Z,1005.51
2017-09-07T06:26:10.802Z,1005.49
2017-09-07T06:26:51.297Z,1005.51
2017-09-07T06:27:31.872Z,1005.56
2017-09-07T06:28:12.480Z,1005.51
2017-09-07T06:28:52.988Z,1005.52
2017-09-07T06:29:33.592Z,1005.51
2017-09-07T06:30:14.144Z,1005.51
2017-09-07T06:30:54.669Z,1005.52
2017-09-07T06:31:35.180Z,1005.47
2017-09-07T06:32:15.716Z,1005.5
2017-09-07T06:32:56.230Z,1005.48
2017-09-07T06:33:36.823Z,1005.53
2017-09-07T06:34:17.424Z,1005.5
2017-09-07T06:34:58.051Z,1005.51
2017-09-07T06:35:38.549Z,1005.51
2017-09-07T06:36:19.180Z,1005.53
2017-09-07T06:36:59.689Z,1005.57
2017-09-07T06:37:40.259Z,1005.57
2017-09-07T06:38:20.823Z,1005.55
2017-09-07T06:39:01.349Z,1005.55
2017-09-07T06:39:41.995Z,1005.56
2017-09-07T06:40:22.535Z,1005.53
2017-09-07T06:41:03.092Z,1005.55
2017-09-07T06:41:43.694Z,1005.59
2017-09-07T06:42:24.257Z,1005.54
2017-09-07T06:43:04.853Z,1005.51
2017-09-07T06:43:45.443Z,1005.53
2017-09-07T06:44:26.034Z,1005.57
2017-09-07T06:45:06.590Z,1005.52
2017-09-07T06:45:47.157Z,1005.54
2017-09-07T06:46:27.735Z,1005.55
2017-09-07T06:47:08.258Z,1005.57
2017-09-07T06:47:48.823Z,1005.56
2017-09-07T06:48:29.392Z,1005.56
2017-09-07T06:49:10.002Z,1005.59
2017-09-07T06:49:50.592Z,1005.58
2017-09-07T06:50:31.402Z,1005.59
2017-09-07T06:51:12.275Z,1005.59
2017-09-07T06:51:52.853Z,1005.64
2017-09-07T06:52:33.389Z,1005.61
2017-09-07T06:53:14.073Z,1005.63
2017-09-07T06:53:54.794Z,1005.64
2017-09-07T06:54:35.368Z,1005.59
2017-09-07T06:55:15.896Z,1005.64
2017-09-07T06:55:56.453Z,1005.63
2017-09-07T06:56:37.088Z,1005.63
2017-09-07T06:57:17.741Z,1005.62
2017-09-07T06:57:58.298Z,1005.65
2017-09-07T06:58:38.788Z,1005.61
2017-09-07T06:59:19.341Z,1005.59
2017-09-07T06:59:59.904Z,1005.6
2017-09-07T07:00:40.475Z,1005.62
2017-09-07T07:01:20.996Z,1005.61
2017-09-07T07:02:01.552Z,1005.63
2017-09-07T07:02:42.086Z,1005.61
2017-09-07T07:03:22.660Z,1005.62
2017-09-07T07:04:03.243Z,1005.57
2017-09-07T07:04:43.732Z,1005.63
2017-09-07T07:05:24.262Z,1005.65
2017-09-07T07:06:04.842Z,1005.62
2017-09-07T07:06:45.472Z,1005.65
2017-09-07T07:07:26.053Z,1005.64
2017-09-07T07:08:06.578Z,1005.63
2017-09-07T07:08:47.161Z,1005.65
2017-09-07T07:09:27.692Z,1005.63
2017-09-07T07:10:08.196Z,1005.63
2017-09-07T07:10:48.778Z,1005.69
2017-09-07T07:11:29.306Z,1005.7
2017-09-07T07:12:09.861Z,1005.67
2017-09-07T07:12:50.393Z,1005.65
2017-09-07T07:13:30.941Z,1005.66
2017-09-07T07:14:11.456Z,1005.67
2017-09-07T07:14:52.068Z,1005.69
2017-09-07T07:15:32.652Z,1005.72
2017-09-07T07:16:13.168Z,1005.69
2017-09-07T07:16:53.684Z,1005.73
2017-09-07T07:17:34.269Z,1005.7
2017-09-07T07:18:14.817Z,1005.67
2017-09-07T07:18:55.378Z,1005.69
2017-09-07T07:19:35.900Z,1005.7
2017-09-07T07:20:16.483Z,1005.7
2017-09-07T07:20:56.987Z,1005.67
2017-09-07T07:21:37.603Z,1005.71
2017-09-07T07:22:18.027Z,1005.69
2017-09-07T07:22:58.576Z,1005.67
2017-09-07T07:23:39.120Z,1005.64
2017-09-07T07:24:19.645Z,1005.65
2017-09-07T07:25:00.189Z,1005.66
2017-09-07T07:25:40.724Z,1005.64
2017-09-07T07:26:21.335Z,1005.62
2017-09-07T07:27:01.871Z,1005.68
2017-09-07T07:27:42.415Z,1005.67
2017-09-07T07:28:23.006Z,1005.71
2017-09-07T07:29:03.611Z,1005.69
2017-09-07T07:29:44.135Z,1005.78
2017-09-07T07:30:24.715Z,1005.74
2017-09-07T07:31:05.258Z,1005.75
2017-09-07T07:31:45.830Z,1005.74
2017-09-07T07:32:26.439Z,1005.77
2017-09-07T07:33:06.911Z,1005.73
2017-09-07T07:33:47.479Z,1005.75
2017-09-07T07:34:28.028Z,1005.73
2017-09-07T07:35:08.542Z,1005.74
2017-09-07T07:35:49.101Z,1005.76
2017-09-07T07:36:29.626Z,1005.79
2017-09-07T07:37:10.161Z,1005.78
2017-09-07T07:37:50.720Z,1005.76
2017-09-07T07:38:31.288Z,1005.76
2017-09-07T07:39:11.872Z,1005.75
2017-09-07T07:39:52.403Z,1005.83
2017-09-07T07:40:32.947Z,1005.83
2017-09-07T07:41:13.462Z,1005.77
2017-09-07T07:41:54.047Z,1005.82
2017-09-07T07:42:34.559Z,1005.81
2017-09-07T07:43:15.105Z,1005.82
2017-09-07T07:43:55.672Z,1005.8
2017-09-07T07:44:36.231Z,1005.78
2017-09-07T07:45:16.796Z,1005.8
2017-09-07T07:45:57.369Z,1005.75
2017-09-07T07:46:37.899Z,1005.78
2017-09-07T07:47:18.475Z,1005.82
2017-09-07T07:47:59.059Z,1005.78
2017-09-07T07:48:39.629Z,1005.75
2017-09-07T07:49:20.228Z,1005.79
2017-09-07T07:50:00.782Z,1005.83
2017-09-07T07:50:41.393Z,1005.8
2017-09-07T07:51:21.947Z,1005.77
2017-09-07T07:52:02.523Z,1005.78
2017-09-07T07:52:43.178Z,1005.8
2017-09-07T07:53:23.771Z,1005.84
2017-09-07T07:54:04.382Z,1005.86
2017-09-07T07:54:44.945Z,1005.88
2017-09-07T07:55:25.602Z,1005.88
2017-09-07T07:56:06.058Z,1005.88
2017-09-07T07:56:46.575Z,1005.91
2017-09-07T07:57:27.149Z,1005.91
2017-09-07T07:58:07.695Z,1005.91
2017-09-07T07:58:48.270Z,1005.97
2017-09-07T07:59:28.811Z,1005.91
2017-09-07T08:00:09.383Z,1005.91
2017-09-07T08:00:49.940Z,1005.93
2017-09-07T08:01:30.601Z,1005.93
2017-09-07T08:02:11.222Z,1005.92
2017-09-07T08:02:51.810Z,1005.95
2017-09-07T08:03:32.406Z,1005.86
2017-09-07T08:04:13.003Z,1005.89
2017-09-07T08:04:53.539Z,1005.89
2017-09-07T08:05:34.095Z,1005.86
2017-09-07T08:06:14.697Z,1005.91
2017-09-07T08:06:55.294Z,1005.83
2017-09-07T08:07:35.894Z,1005.86
2017-09-07T08:08:16.460Z,1005.85
2017-09-07T08:08:57.041Z,1005.88
2017-09-07T08:09:37.617Z,1005.86
2017-09-07T08:10:18.193Z,1005.9
2017-09-07T08:10:58.705Z,1005.87
2017-09-07T08:11:39.220Z,1005.86
2017-09-07T08:12:19.854Z,1005.9